sensor_id;sensor_type;location;lat;lon;timestamp;P1;durP1;ratioP1;P2;durP2;ratioP2
69748;SDS011;57019;52.354;6.584;2022-07-01T00:02:25;5.77;;;1.20;;
69748;SDS011;57019;52.354;6.584;2022-07-01T00:04:50;5.13;;;1.35;;
69748;SDS011;57019;52.354;6.584;2022-07-01T00:07:15;4.37;;;1.20;;
69748;SDS011;57019;52.354;6.584;2022-07-01T00:09:41;5.13;;;1.43;;
69748;SDS011;57019;52.354;6.584;2022-07-01T00:12:07;5.30;;;1.40;;
69748;SDS011;57019;52.354;6.584;2022-07-01T00:14:32;5.57;;;1.40;;
69748;SDS011;57019;52.354;6.584;2022-07-01T00:16:58;5.20;;;1.40;;
69748;SDS011;57019;52.354;6.584;2022-07-01T00:19:24;4.83;;;1.40;;
69748;SDS011;57019;52.354;6.584;2022-07-01T00:21:52;5.18;;;1.40;;
69748;SDS011;57019;52.354;6.584;2022-07-01T00:24:18;4.67;;;1.40;;
69748;SDS011;57019;52.354;6.584;2022-07-01T00:26:43;5.03;;;1.45;;
69748;SDS011;57019;52.354;6.584;2022-07-01T00:29:08;5.50;;;1.40;;
69748;SDS011;57019;52.354;6.584;2022-07-01T00:31:34;4.87;;;1.43;;
69748;SDS011;57019;52.354;6.584;2022-07-01T00:34:00;5.38;;;1.40;;
69748;SDS011;57019;52.354;6.584;2022-07-01T00:36:25;5.40;;;1.40;;
69748;SDS011;57019;52.354;6.584;2022-07-01T00:38:51;5.50;;;1.40;;
69748;SDS011;57019;52.354;6.584;2022-07-01T00:41:16;5.20;;;1.40;;
69748;SDS011;57019;52.354;6.584;2022-07-01T00:43:41;4.53;;;1.20;;
69748;SDS011;57019;52.354;6.584;2022-07-01T00:46:07;4.60;;;1.33;;
69748;SDS011;57019;52.354;6.584;2022-07-01T00:48:32;4.33;;;1.30;;
69748;SDS011;57019;52.354;6.584;2022-07-01T00:50:59;4.72;;;1.30;;
69748;SDS011;57019;52.354;6.584;2022-07-01T00:53:25;4.83;;;1.60;;
69748;SDS011;57019;52.354;6.584;2022-07-01T00:55:50;5.38;;;1.42;;
69748;SDS011;57019;52.354;6.584;2022-07-01T00:58:16;4.87;;;1.30;;
69748;SDS011;57019;52.354;6.584;2022-07-01T01:00:42;5.53;;;1.40;;
69748;SDS011;57019;52.354;6.584;2022-07-01T01:03:07;4.50;;;1.40;;
69748;SDS011;57019;52.354;6.584;2022-07-01T01:05:36;5.07;;;1.50;;
69748;SDS011;57019;52.354;6.584;2022-07-01T01:08:02;4.65;;;1.40;;
69748;SDS011;57019;52.354;6.584;2022-07-01T01:10:28;5.40;;;1.35;;
69748;SDS011;57019;52.354;6.584;2022-07-01T01:12:55;4.82;;;1.33;;
69748;SDS011;57019;52.354;6.584;2022-07-01T01:15:22;4.50;;;1.10;;
69748;SDS011;57019;52.354;6.584;2022-07-01T01:17:47;4.50;;;1.38;;
69748;SDS011;57019;52.354;6.584;2022-07-01T01:20:16;4.43;;;1.50;;
69748;SDS011;57019;52.354;6.584;2022-07-01T01:22:46;6.05;;;1.30;;
69748;SDS011;57019;52.354;6.584;2022-07-01T01:25:15;4.90;;;1.40;;
69748;SDS011;57019;52.354;6.584;2022-07-01T01:27:40;4.18;;;1.30;;
69748;SDS011;57019;52.354;6.584;2022-07-01T01:30:07;4.17;;;1.30;;
69748;SDS011;57019;52.354;6.584;2022-07-01T01:32:34;4.53;;;1.40;;
69748;SDS011;57019;52.354;6.584;2022-07-01T01:34:59;4.35;;;1.20;;
69748;SDS011;57019;52.354;6.584;2022-07-01T01:37:25;5.13;;;1.50;;
69748;SDS011;57019;52.354;6.584;2022-07-01T01:39:52;4.43;;;1.30;;
69748;SDS011;57019;52.354;6.584;2022-07-01T01:42:18;4.10;;;1.38;;
69748;SDS011;57019;52.354;6.584;2022-07-01T01:44:43;4.80;;;1.43;;
69748;SDS011;57019;52.354;6.584;2022-07-01T01:47:08;4.67;;;1.47;;
69748;SDS011;57019;52.354;6.584;2022-07-01T01:49:34;4.33;;;1.30;;
69748;SDS011;57019;52.354;6.584;2022-07-01T01:51:59;6.37;;;1.30;;
69748;SDS011;57019;52.354;6.584;2022-07-01T01:54:25;4.40;;;1.30;;
69748;SDS011;57019;52.354;6.584;2022-07-01T01:56:51;4.30;;;1.33;;
69748;SDS011;57019;52.354;6.584;2022-07-01T01:59:16;4.97;;;1.33;;
69748;SDS011;57019;52.354;6.584;2022-07-01T02:01:41;4.28;;;1.15;;
69748;SDS011;57019;52.354;6.584;2022-07-01T02:04:07;5.13;;;1.40;;
69748;SDS011;57019;52.354;6.584;2022-07-01T02:06:32;5.00;;;1.40;;
69748;SDS011;57019;52.354;6.584;2022-07-01T02:08:57;3.97;;;1.30;;
69748;SDS011;57019;52.354;6.584;2022-07-01T02:11:23;5.60;;;1.40;;
69748;SDS011;57019;52.354;6.584;2022-07-01T02:13:48;4.67;;;1.57;;
69748;SDS011;57019;52.354;6.584;2022-07-01T02:16:13;4.50;;;1.20;;
69748;SDS011;57019;52.354;6.584;2022-07-01T02:18:39;4.73;;;1.50;;
69748;SDS011;57019;52.354;6.584;2022-07-01T02:21:04;5.40;;;1.60;;
69748;SDS011;57019;52.354;6.584;2022-07-01T02:23:29;5.53;;;1.70;;
69748;SDS011;57019;52.354;6.584;2022-07-01T02:25:55;4.97;;;1.40;;
69748;SDS011;57019;52.354;6.584;2022-07-01T02:28:20;5.47;;;1.70;;
69748;SDS011;57019;52.354;6.584;2022-07-01T02:30:46;5.68;;;1.50;;
69748;SDS011;57019;52.354;6.584;2022-07-01T02:33:12;4.97;;;1.60;;
69748;SDS011;57019;52.354;6.584;2022-07-01T02:35:38;5.90;;;1.60;;
69748;SDS011;57019;52.354;6.584;2022-07-01T02:38:05;5.73;;;1.83;;
69748;SDS011;57019;52.354;6.584;2022-07-01T02:40:31;5.53;;;1.83;;
69748;SDS011;57019;52.354;6.584;2022-07-01T02:42:58;5.50;;;1.80;;
69748;SDS011;57019;52.354;6.584;2022-07-01T02:45:25;5.70;;;1.70;;
69748;SDS011;57019;52.354;6.584;2022-07-01T02:47:51;5.38;;;1.77;;
69748;SDS011;57019;52.354;6.584;2022-07-01T02:50:17;6.20;;;1.67;;
69748;SDS011;57019;52.354;6.584;2022-07-01T02:52:44;6.20;;;1.92;;
69748;SDS011;57019;52.354;6.584;2022-07-01T02:55:11;5.28;;;1.70;;
69748;SDS011;57019;52.354;6.584;2022-07-01T02:57:38;5.22;;;1.70;;
69748;SDS011;57019;52.354;6.584;2022-07-01T03:00:05;5.93;;;1.77;;
69748;SDS011;57019;52.354;6.584;2022-07-01T03:02:32;5.77;;;1.93;;
69748;SDS011;57019;52.354;6.584;2022-07-01T03:04:58;5.35;;;1.80;;
69748;SDS011;57019;52.354;6.584;2022-07-01T03:07:24;5.25;;;1.80;;
69748;SDS011;57019;52.354;6.584;2022-07-01T03:09:49;5.30;;;1.90;;
69748;SDS011;57019;52.354;6.584;2022-07-01T03:12:15;5.63;;;1.73;;
69748;SDS011;57019;52.354;6.584;2022-07-01T03:14:51;4.85;;;1.58;;
69748;SDS011;57019;52.354;6.584;2022-07-01T03:17:17;6.20;;;1.80;;
69748;SDS011;57019;52.354;6.584;2022-07-01T03:19:43;5.30;;;1.87;;
69748;SDS011;57019;52.354;6.584;2022-07-01T03:22:09;6.55;;;2.08;;
69748;SDS011;57019;52.354;6.584;2022-07-01T03:24:35;5.47;;;1.73;;
69748;SDS011;57019;52.354;6.584;2022-07-01T03:27:00;5.18;;;1.77;;
69748;SDS011;57019;52.354;6.584;2022-07-01T03:29:25;5.47;;;2.00;;
69748;SDS011;57019;52.354;6.584;2022-07-01T03:31:51;5.60;;;1.90;;
69748;SDS011;57019;52.354;6.584;2022-07-01T03:34:16;6.50;;;1.90;;
69748;SDS011;57019;52.354;6.584;2022-07-01T03:36:41;6.30;;;1.90;;
69748;SDS011;57019;52.354;6.584;2022-07-01T03:39:07;6.07;;;2.30;;
69748;SDS011;57019;52.354;6.584;2022-07-01T03:41:32;5.60;;;2.13;;
69748;SDS011;57019;52.354;6.584;2022-07-01T03:43:58;5.30;;;2.03;;
69748;SDS011;57019;52.354;6.584;2022-07-01T03:46:23;5.57;;;1.97;;
69748;SDS011;57019;52.354;6.584;2022-07-01T03:48:48;6.67;;;2.50;;
69748;SDS011;57019;52.354;6.584;2022-07-01T03:51:14;5.40;;;2.03;;
69748;SDS011;57019;52.354;6.584;2022-07-01T03:53:39;5.97;;;2.20;;
69748;SDS011;57019;52.354;6.584;2022-07-01T03:56:23;5.78;;;2.25;;
69748;SDS011;57019;52.354;6.584;2022-07-01T03:58:48;6.30;;;2.47;;
69748;SDS011;57019;52.354;6.584;2022-07-01T04:01:13;5.83;;;2.33;;
69748;SDS011;57019;52.354;6.584;2022-07-01T04:03:39;5.70;;;2.37;;
69748;SDS011;57019;52.354;6.584;2022-07-01T04:06:05;6.10;;;2.40;;
69748;SDS011;57019;52.354;6.584;2022-07-01T04:08:30;6.40;;;2.40;;
69748;SDS011;57019;52.354;6.584;2022-07-01T04:10:56;6.60;;;2.60;;
69748;SDS011;57019;52.354;6.584;2022-07-01T04:13:22;5.93;;;2.37;;
69748;SDS011;57019;52.354;6.584;2022-07-01T04:15:47;6.18;;;2.20;;
69748;SDS011;57019;52.354;6.584;2022-07-01T04:18:13;5.33;;;2.20;;
69748;SDS011;57019;52.354;6.584;2022-07-01T04:20:38;6.07;;;2.30;;
69748;SDS011;57019;52.354;6.584;2022-07-01T04:23:04;6.53;;;2.50;;
69748;SDS011;57019;52.354;6.584;2022-07-01T04:25:29;5.30;;;2.10;;
69748;SDS011;57019;52.354;6.584;2022-07-01T04:27:55;6.13;;;2.50;;
69748;SDS011;57019;52.354;6.584;2022-07-01T04:30:22;6.00;;;2.45;;
69748;SDS011;57019;52.354;6.584;2022-07-01T04:32:47;6.00;;;2.40;;
69748;SDS011;57019;52.354;6.584;2022-07-01T04:35:12;5.63;;;2.40;;
69748;SDS011;57019;52.354;6.584;2022-07-01T04:37:39;6.60;;;2.37;;
69748;SDS011;57019;52.354;6.584;2022-07-01T04:40:05;6.03;;;2.67;;
69748;SDS011;57019;52.354;6.584;2022-07-01T04:42:32;6.22;;;2.58;;
69748;SDS011;57019;52.354;6.584;2022-07-01T04:44:57;7.60;;;2.87;;
69748;SDS011;57019;52.354;6.584;2022-07-01T04:47:22;6.40;;;2.83;;
69748;SDS011;57019;52.354;6.584;2022-07-01T04:49:48;6.33;;;2.60;;
69748;SDS011;57019;52.354;6.584;2022-07-01T04:52:14;6.57;;;2.87;;
69748;SDS011;57019;52.354;6.584;2022-07-01T04:54:40;6.95;;;3.33;;
69748;SDS011;57019;52.354;6.584;2022-07-01T04:57:05;6.60;;;2.97;;
69748;SDS011;57019;52.354;6.584;2022-07-01T04:59:30;7.30;;;3.33;;
69748;SDS011;57019;52.354;6.584;2022-07-01T05:01:56;8.70;;;3.43;;
69748;SDS011;57019;52.354;6.584;2022-07-01T05:04:23;8.45;;;3.50;;
69748;SDS011;57019;52.354;6.584;2022-07-01T05:06:51;7.20;;;3.23;;
69748;SDS011;57019;52.354;6.584;2022-07-01T05:09:16;7.25;;;3.50;;
69748;SDS011;57019;52.354;6.584;2022-07-01T05:11:41;8.30;;;3.57;;
69748;SDS011;57019;52.354;6.584;2022-07-01T05:14:07;7.90;;;3.90;;
69748;SDS011;57019;52.354;6.584;2022-07-01T05:16:34;9.18;;;4.60;;
69748;SDS011;57019;52.354;6.584;2022-07-01T05:19:00;9.60;;;4.50;;
69748;SDS011;57019;52.354;6.584;2022-07-01T05:21:44;11.73;;;3.70;;
69748;SDS011;57019;52.354;6.584;2022-07-01T05:24:22;8.30;;;3.78;;
69748;SDS011;57019;52.354;6.584;2022-07-01T05:26:48;9.48;;;3.80;;
69748;SDS011;57019;52.354;6.584;2022-07-01T05:29:14;7.88;;;3.90;;
69748;SDS011;57019;52.354;6.584;2022-07-01T05:31:40;10.35;;;3.85;;
69748;SDS011;57019;52.354;6.584;2022-07-01T05:34:06;7.60;;;3.83;;
69748;SDS011;57019;52.354;6.584;2022-07-01T05:36:32;8.00;;;4.07;;
69748;SDS011;57019;52.354;6.584;2022-07-01T05:38:57;7.60;;;3.85;;
69748;SDS011;57019;52.354;6.584;2022-07-01T05:41:23;8.47;;;3.80;;
69748;SDS011;57019;52.354;6.584;2022-07-01T05:43:49;8.07;;;4.17;;
69748;SDS011;57019;52.354;6.584;2022-07-01T05:46:14;9.33;;;4.77;;
69748;SDS011;57019;52.354;6.584;2022-07-01T05:48:39;8.50;;;4.40;;
69748;SDS011;57019;52.354;6.584;2022-07-01T05:51:05;9.47;;;4.80;;
69748;SDS011;57019;52.354;6.584;2022-07-01T05:53:30;9.03;;;4.70;;
69748;SDS011;57019;52.354;6.584;2022-07-01T05:55:55;8.53;;;4.60;;
69748;SDS011;57019;52.354;6.584;2022-07-01T05:58:21;8.93;;;4.80;;
69748;SDS011;57019;52.354;6.584;2022-07-01T06:00:46;10.43;;;4.63;;
69748;SDS011;57019;52.354;6.584;2022-07-01T06:03:12;9.63;;;4.60;;
69748;SDS011;57019;52.354;6.584;2022-07-01T06:05:39;8.82;;;4.90;;
69748;SDS011;57019;52.354;6.584;2022-07-01T06:08:06;11.20;;;4.72;;
69748;SDS011;57019;52.354;6.584;2022-07-01T06:10:32;8.17;;;4.50;;
69748;SDS011;57019;52.354;6.584;2022-07-01T06:12:58;10.43;;;5.13;;
69748;SDS011;57019;52.354;6.584;2022-07-01T06:15:23;9.73;;;4.57;;
69748;SDS011;57019;52.354;6.584;2022-07-01T06:17:49;9.43;;;4.93;;
69748;SDS011;57019;52.354;6.584;2022-07-01T06:20:16;9.50;;;4.72;;
69748;SDS011;57019;52.354;6.584;2022-07-01T06:22:42;11.57;;;5.63;;
69748;SDS011;57019;52.354;6.584;2022-07-01T06:25:07;9.53;;;4.80;;
69748;SDS011;57019;52.354;6.584;2022-07-01T06:27:39;9.57;;;4.68;;
69748;SDS011;57019;52.354;6.584;2022-07-01T06:30:06;10.50;;;5.30;;
69748;SDS011;57019;52.354;6.584;2022-07-01T06:32:32;12.60;;;5.80;;
69748;SDS011;57019;52.354;6.584;2022-07-01T06:34:57;10.48;;;5.75;;
69748;SDS011;57019;52.354;6.584;2022-07-01T06:37:23;14.43;;;6.00;;
69748;SDS011;57019;52.354;6.584;2022-07-01T06:39:48;12.53;;;6.13;;
69748;SDS011;57019;52.354;6.584;2022-07-01T06:42:13;16.13;;;5.97;;
69748;SDS011;57019;52.354;6.584;2022-07-01T06:44:39;11.50;;;6.47;;
69748;SDS011;57019;52.354;6.584;2022-07-01T06:47:04;11.00;;;5.50;;
69748;SDS011;57019;52.354;6.584;2022-07-01T06:49:29;12.73;;;6.50;;
69748;SDS011;57019;52.354;6.584;2022-07-01T06:51:55;10.75;;;5.90;;
69748;SDS011;57019;52.354;6.584;2022-07-01T06:54:20;12.50;;;5.67;;
69748;SDS011;57019;52.354;6.584;2022-07-01T06:56:46;11.40;;;5.93;;
69748;SDS011;57019;52.354;6.584;2022-07-01T06:59:11;11.40;;;5.63;;
69748;SDS011;57019;52.354;6.584;2022-07-01T07:01:37;10.47;;;5.50;;
69748;SDS011;57019;52.354;6.584;2022-07-01T07:04:02;11.60;;;5.60;;
69748;SDS011;57019;52.354;6.584;2022-07-01T07:06:28;10.40;;;5.40;;
69748;SDS011;57019;52.354;6.584;2022-07-01T07:08:54;10.40;;;5.57;;
69748;SDS011;57019;52.354;6.584;2022-07-01T07:11:19;10.38;;;5.65;;
69748;SDS011;57019;52.354;6.584;2022-07-01T07:13:45;10.77;;;5.77;;
69748;SDS011;57019;52.354;6.584;2022-07-01T07:16:10;10.87;;;5.70;;
69748;SDS011;57019;52.354;6.584;2022-07-01T07:18:36;10.43;;;5.55;;
69748;SDS011;57019;52.354;6.584;2022-07-01T07:21:01;9.87;;;5.23;;
69748;SDS011;57019;52.354;6.584;2022-07-01T07:23:28;11.30;;;5.38;;
69748;SDS011;57019;52.354;6.584;2022-07-01T07:25:53;10.30;;;5.43;;
69748;SDS011;57019;52.354;6.584;2022-07-01T07:28:19;10.63;;;5.37;;
69748;SDS011;57019;52.354;6.584;2022-07-01T07:30:44;10.80;;;5.38;;
69748;SDS011;57019;52.354;6.584;2022-07-01T07:33:10;11.03;;;5.57;;
69748;SDS011;57019;52.354;6.584;2022-07-01T07:35:35;10.27;;;5.40;;
69748;SDS011;57019;52.354;6.584;2022-07-01T07:38:00;8.87;;;5.07;;
69748;SDS011;57019;52.354;6.584;2022-07-01T07:40:26;9.97;;;4.93;;
69748;SDS011;57019;52.354;6.584;2022-07-01T07:42:51;9.60;;;5.03;;
69748;SDS011;57019;52.354;6.584;2022-07-01T07:45:17;10.13;;;4.87;;
69748;SDS011;57019;52.354;6.584;2022-07-01T07:47:43;10.17;;;5.23;;
69748;SDS011;57019;52.354;6.584;2022-07-01T07:50:09;10.45;;;5.13;;
69748;SDS011;57019;52.354;6.584;2022-07-01T07:52:36;10.53;;;5.33;;
69748;SDS011;57019;52.354;6.584;2022-07-01T07:55:01;10.57;;;5.28;;
69748;SDS011;57019;52.354;6.584;2022-07-01T07:57:27;9.98;;;5.00;;
69748;SDS011;57019;52.354;6.584;2022-07-01T07:59:53;11.60;;;5.40;;
69748;SDS011;57019;52.354;6.584;2022-07-01T08:02:18;9.70;;;5.33;;
69748;SDS011;57019;52.354;6.584;2022-07-01T08:04:44;9.70;;;4.75;;
69748;SDS011;57019;52.354;6.584;2022-07-01T08:07:09;9.83;;;4.90;;
69748;SDS011;57019;52.354;6.584;2022-07-01T08:09:34;10.13;;;5.30;;
69748;SDS011;57019;52.354;6.584;2022-07-01T08:12:00;10.90;;;5.20;;
69748;SDS011;57019;52.354;6.584;2022-07-01T08:14:26;9.60;;;4.82;;
69748;SDS011;57019;52.354;6.584;2022-07-01T08:16:52;9.52;;;4.85;;
69748;SDS011;57019;52.354;6.584;2022-07-01T08:19:17;9.23;;;4.50;;
69748;SDS011;57019;52.354;6.584;2022-07-01T08:21:43;10.53;;;5.13;;
69748;SDS011;57019;52.354;6.584;2022-07-01T08:24:08;10.83;;;5.10;;
69748;SDS011;57019;52.354;6.584;2022-07-01T08:26:33;10.13;;;4.93;;
69748;SDS011;57019;52.354;6.584;2022-07-01T08:28:59;11.50;;;5.20;;
69748;SDS011;57019;52.354;6.584;2022-07-01T08:31:24;9.70;;;4.67;;
69748;SDS011;57019;52.354;6.584;2022-07-01T08:33:49;11.10;;;4.90;;
69748;SDS011;57019;52.354;6.584;2022-07-01T08:36:15;10.07;;;5.00;;
69748;SDS011;57019;52.354;6.584;2022-07-01T08:38:40;9.47;;;4.70;;
69748;SDS011;57019;52.354;6.584;2022-07-01T08:41:07;10.55;;;5.25;;
69748;SDS011;57019;52.354;6.584;2022-07-01T08:43:33;10.10;;;4.93;;
69748;SDS011;57019;52.354;6.584;2022-07-01T08:45:59;10.10;;;5.10;;
69748;SDS011;57019;52.354;6.584;2022-07-01T08:48:26;11.50;;;5.10;;
69748;SDS011;57019;52.354;6.584;2022-07-01T08:50:53;9.15;;;4.38;;
69748;SDS011;57019;52.354;6.584;2022-07-01T08:53:18;10.33;;;4.90;;
69748;SDS011;57019;52.354;6.584;2022-07-01T08:55:43;10.33;;;4.87;;
69748;SDS011;57019;52.354;6.584;2022-07-01T08:58:27;8.88;;;4.50;;
69748;SDS011;57019;52.354;6.584;2022-07-01T09:00:53;9.20;;;4.43;;
69748;SDS011;57019;52.354;6.584;2022-07-01T09:03:36;9.80;;;4.70;;
69748;SDS011;57019;52.354;6.584;2022-07-01T09:06:01;10.43;;;4.80;;
69748;SDS011;57019;52.354;6.584;2022-07-01T09:08:27;10.13;;;4.60;;
69748;SDS011;57019;52.354;6.584;2022-07-01T09:10:53;9.98;;;4.55;;
69748;SDS011;57019;52.354;6.584;2022-07-01T09:13:18;9.40;;;4.27;;
69748;SDS011;57019;52.354;6.584;2022-07-01T09:15:44;9.30;;;4.20;;
69748;SDS011;57019;52.354;6.584;2022-07-01T09:18:10;10.03;;;4.50;;
69748;SDS011;57019;52.354;6.584;2022-07-01T09:20:41;9.10;;;4.50;;
69748;SDS011;57019;52.354;6.584;2022-07-01T09:23:12;10.20;;;4.38;;
69748;SDS011;57019;52.354;6.584;2022-07-01T09:25:40;8.85;;;4.00;;
69748;SDS011;57019;52.354;6.584;2022-07-01T09:28:24;9.18;;;4.20;;
69748;SDS011;57019;52.354;6.584;2022-07-01T09:30:51;8.67;;;3.87;;
69748;SDS011;57019;52.354;6.584;2022-07-01T09:33:20;9.98;;;4.50;;
69748;SDS011;57019;52.354;6.584;2022-07-01T09:35:48;8.68;;;3.90;;
69748;SDS011;57019;52.354;6.584;2022-07-01T09:38:17;9.00;;;4.00;;
69748;SDS011;57019;52.354;6.584;2022-07-01T09:41:02;9.27;;;3.93;;
69748;SDS011;57019;52.354;6.584;2022-07-01T09:48:24;8.00;;;4.13;;
69748;SDS011;57019;52.354;6.584;2022-07-01T09:50:52;8.30;;;3.63;;
69748;SDS011;57019;52.354;6.584;2022-07-01T09:53:18;8.10;;;3.80;;
69748;SDS011;57019;52.354;6.584;2022-07-01T09:55:44;8.57;;;3.90;;
69748;SDS011;57019;52.354;6.584;2022-07-01T09:58:10;8.68;;;3.67;;
69748;SDS011;57019;52.354;6.584;2022-07-01T10:00:36;8.53;;;3.73;;
69748;SDS011;57019;52.354;6.584;2022-07-01T10:03:03;9.02;;;3.90;;
69748;SDS011;57019;52.354;6.584;2022-07-01T10:05:31;8.03;;;3.70;;
69748;SDS011;57019;52.354;6.584;2022-07-01T10:10:49;7.90;;;3.67;;
69748;SDS011;57019;52.354;6.584;2022-07-01T10:13:26;7.82;;;3.20;;
69748;SDS011;57019;52.354;6.584;2022-07-01T10:15:56;8.00;;;3.55;;
69748;SDS011;57019;52.354;6.584;2022-07-01T10:18:26;8.60;;;3.43;;
69748;SDS011;57019;52.354;6.584;2022-07-01T10:20:53;9.68;;;3.70;;
69748;SDS011;57019;52.354;6.584;2022-07-01T10:23:21;7.20;;;3.20;;
69748;SDS011;57019;52.354;6.584;2022-07-01T10:25:50;7.75;;;3.60;;
69748;SDS011;57019;52.354;6.584;2022-07-01T10:28:26;8.57;;;3.50;;
69748;SDS011;57019;52.354;6.584;2022-07-01T10:36:03;10.05;;;3.30;;
69748;SDS011;57019;52.354;6.584;2022-07-01T10:44:04;10.40;;;3.50;;
69748;SDS011;57019;52.354;6.584;2022-07-01T10:46:41;7.70;;;3.42;;
69748;SDS011;57019;52.354;6.584;2022-07-01T10:49:15;9.35;;;3.50;;
69748;SDS011;57019;52.354;6.584;2022-07-01T10:51:48;8.38;;;3.20;;
69748;SDS011;57019;52.354;6.584;2022-07-01T11:00:30;8.38;;;3.13;;
69748;SDS011;57019;52.354;6.584;2022-07-01T11:02:38;8.07;;;3.30;;
69748;SDS011;57019;52.354;6.584;2022-07-01T11:05:06;9.00;;;3.30;;
69748;SDS011;57019;52.354;6.584;2022-07-01T11:07:33;9.05;;;3.35;;
69748;SDS011;57019;52.354;6.584;2022-07-01T11:10:01;9.43;;;3.35;;
69748;SDS011;57019;52.354;6.584;2022-07-01T11:12:29;9.45;;;2.80;;
69748;SDS011;57019;52.354;6.584;2022-07-01T11:14:55;7.47;;;2.83;;
69748;SDS011;57019;52.354;6.584;2022-07-01T11:17:36;9.05;;;2.90;;
69748;SDS011;57019;52.354;6.584;2022-07-01T11:20:07;8.88;;;3.20;;
69748;SDS011;57019;52.354;6.584;2022-07-01T11:22:33;6.83;;;2.87;;
69748;SDS011;57019;52.354;6.584;2022-07-01T11:25:00;6.82;;;2.80;;
69748;SDS011;57019;52.354;6.584;2022-07-01T11:27:28;7.95;;;3.25;;
69748;SDS011;57019;52.354;6.584;2022-07-01T11:29:55;6.53;;;2.42;;
69748;SDS011;57019;52.354;6.584;2022-07-01T11:33:07;8.00;;;3.00;;
69748;SDS011;57019;52.354;6.584;2022-07-01T11:35:19;6.73;;;2.63;;
69748;SDS011;57019;52.354;6.584;2022-07-01T11:38:15;7.45;;;2.80;;
69748;SDS011;57019;52.354;6.584;2022-07-01T11:41:04;6.53;;;2.25;;
69748;SDS011;57019;52.354;6.584;2022-07-01T11:43:36;5.93;;;2.40;;
69748;SDS011;57019;52.354;6.584;2022-07-01T11:46:04;6.38;;;2.28;;
69748;SDS011;57019;52.354;6.584;2022-07-01T11:48:39;5.77;;;2.17;;
69748;SDS011;57019;52.354;6.584;2022-07-01T11:51:07;7.78;;;2.40;;
69748;SDS011;57019;52.354;6.584;2022-07-01T11:53:36;7.32;;;2.00;;
69748;SDS011;57019;52.354;6.584;2022-07-01T11:56:02;6.30;;;1.95;;
69748;SDS011;57019;52.354;6.584;2022-07-01T11:58:44;6.13;;;2.07;;
69748;SDS011;57019;52.354;6.584;2022-07-01T12:01:30;5.50;;;1.80;;
69748;SDS011;57019;52.354;6.584;2022-07-01T12:03:58;6.43;;;2.00;;
69748;SDS011;57019;52.354;6.584;2022-07-01T12:06:27;6.78;;;2.00;;
69748;SDS011;57019;52.354;6.584;2022-07-01T12:08:53;6.50;;;2.00;;
69748;SDS011;57019;52.354;6.584;2022-07-01T12:11:21;6.93;;;2.10;;
69748;SDS011;57019;52.354;6.584;2022-07-01T12:13:48;6.15;;;1.63;;
69748;SDS011;57019;52.354;6.584;2022-07-01T12:16:15;5.10;;;1.50;;
69748;SDS011;57019;52.354;6.584;2022-07-01T12:18:50;6.88;;;1.70;;
69748;SDS011;57019;52.354;6.584;2022-07-01T12:21:20;5.15;;;1.48;;
69748;SDS011;57019;52.354;6.584;2022-07-01T12:26:32;4.72;;;1.50;;
69748;SDS011;57019;52.354;6.584;2022-07-01T12:28:58;5.57;;;1.60;;
69748;SDS011;57019;52.354;6.584;2022-07-01T12:31:23;5.10;;;1.40;;
69748;SDS011;57019;52.354;6.584;2022-07-01T12:33:49;6.82;;;1.60;;
69748;SDS011;57019;52.354;6.584;2022-07-01T12:36:15;5.57;;;1.37;;
69748;SDS011;57019;52.354;6.584;2022-07-01T12:38:42;6.15;;;1.60;;
69748;SDS011;57019;52.354;6.584;2022-07-01T12:43:58;10.50;;;1.60;;
69748;SDS011;57019;52.354;6.584;2022-07-01T12:46:27;6.03;;;1.40;;
69748;SDS011;57019;52.354;6.584;2022-07-01T12:48:54;4.80;;;1.38;;
69748;SDS011;57019;52.354;6.584;2022-07-01T12:51:20;4.47;;;1.37;;
69748;SDS011;57019;52.354;6.584;2022-07-01T12:53:45;5.30;;;1.60;;
69748;SDS011;57019;52.354;6.584;2022-07-01T12:56:21;5.03;;;1.25;;
69748;SDS011;57019;52.354;6.584;2022-07-01T12:58:49;6.57;;;1.60;;
69748;SDS011;57019;52.354;6.584;2022-07-01T13:01:17;7.53;;;1.50;;
69748;SDS011;57019;52.354;6.584;2022-07-01T13:03:43;4.50;;;1.20;;
69748;SDS011;57019;52.354;6.584;2022-07-01T13:06:09;6.87;;;1.33;;
69748;SDS011;57019;52.354;6.584;2022-07-01T13:08:34;4.77;;;1.30;;
69748;SDS011;57019;52.354;6.584;2022-07-01T13:10:59;5.60;;;1.30;;
69748;SDS011;57019;52.354;6.584;2022-07-01T13:13:25;4.88;;;1.20;;
69748;SDS011;57019;52.354;6.584;2022-07-01T13:15:50;5.87;;;1.30;;
69748;SDS011;57019;52.354;6.584;2022-07-01T13:18:15;3.87;;;1.13;;
69748;SDS011;57019;52.354;6.584;2022-07-01T13:20:41;5.50;;;1.20;;
69748;SDS011;57019;52.354;6.584;2022-07-01T13:23:08;4.60;;;1.15;;
69748;SDS011;57019;52.354;6.584;2022-07-01T13:25:34;5.93;;;1.40;;
69748;SDS011;57019;52.354;6.584;2022-07-01T13:27:59;5.00;;;1.17;;
69748;SDS011;57019;52.354;6.584;2022-07-01T13:30:24;3.93;;;1.10;;
69748;SDS011;57019;52.354;6.584;2022-07-01T13:32:50;5.30;;;1.23;;
69748;SDS011;57019;52.354;6.584;2022-07-01T13:35:18;5.00;;;1.20;;
69748;SDS011;57019;52.354;6.584;2022-07-01T13:37:44;5.05;;;1.33;;
69748;SDS011;57019;52.354;6.584;2022-07-01T13:40:09;4.43;;;1.10;;
69748;SDS011;57019;52.354;6.584;2022-07-01T13:42:35;4.32;;;1.20;;
69748;SDS011;57019;52.354;6.584;2022-07-01T13:45:01;6.73;;;1.07;;
69748;SDS011;57019;52.354;6.584;2022-07-01T13:47:27;3.55;;;0.90;;
69748;SDS011;57019;52.354;6.584;2022-07-01T13:49:53;3.60;;;0.88;;
69748;SDS011;57019;52.354;6.584;2022-07-01T13:52:18;3.00;;;0.87;;
69748;SDS011;57019;52.354;6.584;2022-07-01T13:54:43;4.13;;;1.07;;
69748;SDS011;57019;52.354;6.584;2022-07-01T13:57:09;4.67;;;1.00;;
69748;SDS011;57019;52.354;6.584;2022-07-01T13:59:34;5.60;;;1.10;;
69748;SDS011;57019;52.354;6.584;2022-07-01T14:02:00;4.33;;;1.20;;
69748;SDS011;57019;52.354;6.584;2022-07-01T14:04:25;3.83;;;0.90;;
69748;SDS011;57019;52.354;6.584;2022-07-01T14:06:51;4.73;;;1.07;;
69748;SDS011;57019;52.354;6.584;2022-07-01T14:09:16;4.43;;;1.10;;
69748;SDS011;57019;52.354;6.584;2022-07-01T14:11:42;4.90;;;1.08;;
69748;SDS011;57019;52.354;6.584;2022-07-01T14:14:07;4.33;;;1.00;;
69748;SDS011;57019;52.354;6.584;2022-07-01T14:16:32;6.83;;;1.03;;
69748;SDS011;57019;52.354;6.584;2022-07-01T14:18:58;4.07;;;0.90;;
69748;SDS011;57019;52.354;6.584;2022-07-01T14:21:24;5.83;;;1.00;;
69748;SDS011;57019;52.354;6.584;2022-07-01T14:23:49;5.17;;;0.80;;
69748;SDS011;57019;52.354;6.584;2022-07-01T14:26:15;5.18;;;0.93;;
69748;SDS011;57019;52.354;6.584;2022-07-01T14:28:41;3.00;;;0.87;;
69748;SDS011;57019;52.354;6.584;2022-07-01T14:31:06;10.45;;;0.90;;
69748;SDS011;57019;52.354;6.584;2022-07-01T14:33:31;5.23;;;1.00;;
69748;SDS011;57019;52.354;6.584;2022-07-01T14:35:57;5.27;;;1.10;;
69748;SDS011;57019;52.354;6.584;2022-07-01T14:38:22;4.60;;;0.90;;
69748;SDS011;57019;52.354;6.584;2022-07-01T14:40:48;5.38;;;1.45;;
69748;SDS011;57019;52.354;6.584;2022-07-01T14:43:13;3.30;;;0.90;;
69748;SDS011;57019;52.354;6.584;2022-07-01T14:45:38;8.03;;;1.03;;
69748;SDS011;57019;52.354;6.584;2022-07-01T14:48:04;3.57;;;0.90;;
69748;SDS011;57019;52.354;6.584;2022-07-01T14:50:29;3.57;;;1.00;;
69748;SDS011;57019;52.354;6.584;2022-07-01T14:52:55;3.67;;;1.00;;
69748;SDS011;57019;52.354;6.584;2022-07-01T14:55:20;3.70;;;0.90;;
69748;SDS011;57019;52.354;6.584;2022-07-01T14:57:45;3.77;;;1.00;;
69748;SDS011;57019;52.354;6.584;2022-07-01T15:00:11;3.80;;;1.00;;
69748;SDS011;57019;52.354;6.584;2022-07-01T15:02:37;4.97;;;1.10;;
69748;SDS011;57019;52.354;6.584;2022-07-01T15:05:03;5.90;;;1.47;;
69748;SDS011;57019;52.354;6.584;2022-07-01T15:07:28;5.03;;;1.10;;
69748;SDS011;57019;52.354;6.584;2022-07-01T15:09:54;4.63;;;1.30;;
69748;SDS011;57019;52.354;6.584;2022-07-01T15:12:26;5.82;;;1.38;;
69748;SDS011;57019;52.354;6.584;2022-07-01T15:14:51;4.77;;;1.20;;